Time;durP1;ratioP1;P1;durP2;ratioP2;P2;SDS_P1;SDS_P2;PMS_P1;PMS_P2;Temp;Humidity;BMP_temperature;BMP_pressure;BME280_temperature;BME280_humidity;BME280_pressure;Samples;Min_cycle;Max_cycle;Signal;HPM_P1;HPM_P2
2022/02/12 00:01:08;;;;;;;0.00;0.00;;;;;;;;;;5051626;28;20566;-69
2022/02/12 00:03:36;;;;;;;0.00;0.00;;;;;;;;;;5048638;28;20196;-68
2022/02/12 00:06:03;;;;;;;0.00;0.00;;;;;;;;;;5050254;28;20249;-67
2022/02/12 00:08:30;;;;;;;0.00;0.00;;;;;;;;;;5044120;28;20212;-68
2022/02/12 00:10:58;;;;;;;0.00;0.00;;;;;;;;;;5047009;28;20223;-68
2022/02/12 00:13:25;;;;;;;0.00;0.00;;;;;;;;;;5047548;28;20198;-68
2022/02/12 00:15:54;;;;;;;0.00;0.00;;;;;;;;;;5046580;28;20676;-69
2022/02/12 00:18:21;;;;;;;0.83;0.83;;;;;;;;;;5048175;28;20203;-68
2022/02/12 00:20:48;;;;;;;0.00;0.00;;;;;;;;;;5047129;28;21267;-68
2022/02/12 00:23:16;;;;;;;0.00;0.00;;;;;;;;;;5049044;28;20199;-70
2022/02/12 00:25:44;;;;;;;0.00;0.00;;;;;;;;;;5049764;28;20211;-69
2022/02/12 00:28:11;;;;;;;0.00;0.00;;;;;;;;;;5050331;28;20304;-71
2022/02/12 00:30:39;;;;;;;0.00;0.00;;;;;;;;;;5046995;28;20329;-68
2022/02/12 00:33:09;;;;;;;0.00;0.00;;;;;;;;;;5045975;28;20210;-67
2022/02/12 00:35:37;;;;;;;0.00;0.00;;;;;;;;;;5048973;28;20554;-68
2022/02/12 00:38:04;;;;;;;0.00;0.00;;;;;;;;;;5046941;28;20551;-70
2022/02/12 00:40:31;;;;;;;0.00;0.00;;;;;;;;;;5050207;28;20214;-68
2022/02/12 00:42:59;;;;;;;1.30;0.83;;;;;;;;;;5051509;28;20191;-68
2022/02/12 00:45:26;;;;;;;0.00;0.00;;;;;;;;;;5051119;28;20683;-68
2022/02/12 00:47:54;;;;;;;0.00;0.00;;;;;;;;;;5046383;28;20200;-68
2022/02/12 00:50:22;;;;;;;0.00;0.00;;;;;;;;;;5052194;28;20223;-68
2022/02/12 00:52:50;;;;;;;0.00;0.00;;;;;;;;;;5047659;28;20218;-68
2022/02/12 00:55:17;;;;;;;1.20;1.20;;;;;;;;;;5046452;28;20230;-71
2022/02/12 00:57:45;;;;;;;0.00;0.00;;;;;;;;;;5047030;28;20199;-72
2022/02/12 01:00:13;;;;;;;0.47;0.47;;;;;;;;;;5045112;28;20210;-69
2022/02/12 01:02:40;;;;;;;0.00;0.00;;;;;;;;;;5049081;28;20210;-72
2022/02/12 01:05:08;;;;;;;0.00;0.00;;;;;;;;;;5045535;28;20219;-69
2022/02/12 01:07:37;;;;;;;0.23;0.23;;;;;;;;;;5047232;28;20293;-69
2022/02/12 01:10:04;;;;;;;0.40;0.40;;;;;;;;;;5047533;28;20223;-68
2022/02/12 01:12:32;;;;;;;0.00;0.00;;;;;;;;;;5047822;28;20283;-69
2022/02/12 01:14:59;;;;;;;1.60;1.60;;;;;;;;;;5047305;28;20668;-68
2022/02/12 01:17:29;;;;;;;2.57;1.07;;;;;;;;;;5048934;28;20215;-70
2022/02/12 01:19:57;;;;;;;0.00;0.00;;;;;;;;;;5042204;28;20562;-69
2022/02/12 01:22:24;;;;;;;0.00;0.00;;;;;;;;;;5033090;28;20588;-69
2022/02/12 01:24:53;;;;;;;0.10;0.10;;;;;;;;;;5046639;28;20207;-69
2022/02/12 01:27:21;;;;;;;2.00;1.90;;;;;;;;;;5044610;28;20195;-68
2022/02/12 01:29:48;;;;;;;5.37;5.03;;;;;;;;;;5047371;28;20227;-69
2022/02/12 01:32:16;;;;;;;0.00;0.00;;;;;;;;;;5047940;28;20211;-68
2022/02/12 01:34:43;;;;;;;0.00;0.00;;;;;;;;;;5043738;28;21766;-70
2022/02/12 01:37:10;;;;;;;0.00;0.00;;;;;;;;;;5049055;28;20199;-68
2022/02/12 01:39:38;;;;;;;0.00;0.00;;;;;;;;;;5053328;28;20196;-70
2022/02/12 01:42:07;;;;;;;0.00;0.00;;;;;;;;;;5038919;28;20210;-70
2022/02/12 01:44:35;;;;;;;0.00;0.00;;;;;;;;;;5031881;28;20200;-72
2022/02/12 01:47:03;;;;;;;0.00;0.00;;;;;;;;;;5033755;28;20595;-68
2022/02/12 01:49:30;;;;;;;0.10;0.10;;;;;;;;;;5035165;28;20207;-68
2022/02/12 01:51:57;;;;;;;0.00;0.00;;;;;;;;;;5032534;28;20207;-69
2022/02/12 01:54:25;;;;;;;0.27;0.27;;;;;;;;;;5035820;28;20208;-69
2022/02/12 01:56:55;;;;;;;0.00;0.00;;;;;;;;;;5040167;28;20206;-69
2022/02/12 01:59:25;;;;;;;0.00;0.00;;;;;;;;;;5035327;28;20552;-70
2022/02/12 02:01:53;;;;;;;0.10;0.10;;;;;;;;;;5034905;28;20199;-70
2022/02/12 02:04:21;;;;;;;0.00;0.00;;;;;;;;;;5036578;28;20290;-68
2022/02/12 02:06:48;;;;;;;0.00;0.00;;;;;;;;;;5036227;28;20207;-70
2022/02/12 02:09:17;;;;;;;0.53;0.53;;;;;;;;;;5042418;28;20207;-69
2022/02/12 02:11:44;;;;;;;0.00;0.00;;;;;;;;;;5043239;28;20234;-68
2022/02/12 02:14:12;;;;;;;0.00;0.00;;;;;;;;;;5040951;28;20210;-70
2022/02/12 02:16:41;;;;;;;0.00;0.00;;;;;;;;;;5045815;28;20691;-70
2022/02/12 02:19:09;;;;;;;0.00;0.00;;;;;;;;;;5034897;28;20245;-70
2022/02/12 02:21:37;;;;;;;0.27;0.27;;;;;;;;;;5036030;28;20717;-69
2022/02/12 02:24:06;;;;;;;0.00;0.00;;;;;;;;;;5039022;28;20286;-67
2022/02/12 02:26:34;;;;;;;0.00;0.00;;;;;;;;;;5052483;28;21922;-67
2022/02/12 02:29:01;;;;;;;0.73;0.73;;;;;;;;;;5048822;28;20200;-68
2022/02/12 02:31:29;;;;;;;0.00;0.00;;;;;;;;;;5049755;28;20643;-69
2022/02/12 02:33:56;;;;;;;0.00;0.00;;;;;;;;;;5048213;28;20683;-68
2022/02/12 02:36:23;;;;;;;0.00;0.00;;;;;;;;;;5053811;28;20210;-69
2022/02/12 02:38:51;;;;;;;0.00;0.00;;;;;;;;;;5049219;28;20575;-68
2022/02/12 02:41:19;;;;;;;0.00;0.00;;;;;;;;;;5049655;28;20552;-68
2022/02/12 02:43:47;;;;;;;0.53;0.53;;;;;;;;;;5053251;28;20667;-68
2022/02/12 02:46:14;;;;;;;0.00;0.00;;;;;;;;;;5051814;28;20206;-69
2022/02/12 02:48:41;;;;;;;0.00;0.00;;;;;;;;;;5034544;28;20208;-68
2022/02/12 02:56:40;;;;;;;0.00;0.00;;;;;;;;;;5046568;28;20257;-68
2022/02/12 02:59:08;;;;;;;0.00;0.00;;;;;;;;;;5035691;28;20863;-69
2022/02/12 03:01:36;;;;;;;0.00;0.00;;;;;;;;;;5035284;28;20567;-68
2022/02/12 03:04:04;;;;;;;0.00;0.00;;;;;;;;;;5043802;28;20369;-68
2022/02/12 03:06:32;;;;;;;0.00;0.00;;;;;;;;;;5039892;28;20239;-69
2022/02/12 03:09:00;;;;;;;0.00;0.00;;;;;;;;;;5034071;28;20761;-69
2022/02/12 03:11:28;;;;;;;0.00;0.00;;;;;;;;;;5036479;28;20219;-68
2022/02/12 03:13:56;;;;;;;0.13;0.13;;;;;;;;;;5034471;28;20199;-68
2022/02/12 03:16:24;;;;;;;0.20;0.20;;;;;;;;;;5036563;28;20199;-69
2022/02/12 03:18:51;;;;;;;0.00;0.00;;;;;;;;;;5051922;28;20763;-69
2022/02/12 03:21:19;;;;;;;0.00;0.00;;;;;;;;;;5040864;28;20586;-70
2022/02/12 03:23:47;;;;;;;0.20;0.20;;;;;;;;;;5041339;28;20203;-70
2022/02/12 03:26:15;;;;;;;0.00;0.00;;;;;;;;;;5050636;28;21157;-70
2022/02/12 03:28:43;;;;;;;0.00;0.00;;;;;;;;;;5048092;28;20547;-68
2022/02/12 03:31:12;;;;;;;1.63;1.53;;;;;;;;;;5047182;28;20234;-67
2022/02/12 03:33:39;;;;;;;0.00;0.00;;;;;;;;;;5049446;28;20210;-68
2022/02/12 03:36:07;;;;;;;0.00;0.00;;;;;;;;;;5047934;28;20207;-68
2022/02/12 03:38:35;;;;;;;0.00;0.00;;;;;;;;;;5048924;28;20207;-68
2022/02/12 03:41:03;;;;;;;0.00;0.00;;;;;;;;;;5050805;28;20207;-69
2022/02/12 03:43:31;;;;;;;0.10;0.10;;;;;;;;;;5047803;28;20237;-68
2022/02/12 03:45:59;;;;;;;0.10;0.10;;;;;;;;;;5050928;28;20238;-68
2022/02/12 03:48:28;;;;;;;0.30;0.30;;;;;;;;;;5047364;28;20192;-67
2022/02/12 03:50:56;;;;;;;1.03;0.77;;;;;;;;;;5047963;28;20236;-68
2022/02/12 03:53:23;;;;;;;0.20;0.20;;;;;;;;;;5049202;28;20681;-70
2022/02/12 03:55:52;;;;;;;0.43;0.43;;;;;;;;;;5039770;28;20208;-68
2022/02/12 03:58:20;;;;;;;2.20;2.10;;;;;;;;;;5039759;28;20679;-68
2022/02/12 04:00:50;;;;;;;0.00;0.00;;;;;;;;;;5034109;28;20196;-68
2022/02/12 04:03:17;;;;;;;0.00;0.00;;;;;;;;;;5031424;28;22634;-67
2022/02/12 04:05:46;;;;;;;0.53;0.53;;;;;;;;;;5033384;28;20231;-70
2022/02/12 04:08:17;;;;;;;0.00;0.00;;;;;;;;;;5035650;28;20233;-69
2022/02/12 04:10:45;;;;;;;0.00;0.00;;;;;;;;;;5032744;28;20313;-71
2022/02/12 04:13:13;;;;;;;0.00;0.00;;;;;;;;;;5034955;28;20213;-69
2022/02/12 04:15:40;;;;;;;0.00;0.00;;;;;;;;;;5036560;28;20567;-68
2022/02/12 04:18:10;;;;;;;0.00;0.00;;;;;;;;;;5035758;28;20200;-70
2022/02/12 04:20:38;;;;;;;0.07;0.07;;;;;;;;;;5033257;28;20327;-71
2022/02/12 04:23:07;;;;;;;1.07;0.97;;;;;;;;;;5034694;28;20204;-69
2022/02/12 04:25:34;;;;;;;0.00;0.00;;;;;;;;;;5045464;28;20210;-67
2022/02/12 04:28:04;;;;;;;0.00;0.00;;;;;;;;;;5047276;28;20211;-69
2022/02/12 04:30:31;;;;;;;0.00;0.00;;;;;;;;;;5048551;28;20203;-68
2022/02/12 04:32:59;;;;;;;0.00;0.00;;;;;;;;;;5050417;28;20214;-68
2022/02/12 04:35:26;;;;;;;0.00;0.00;;;;;;;;;;5049770;28;20204;-68
2022/02/12 04:37:53;;;;;;;0.00;0.00;;;;;;;;;;5045626;28;20200;-68
2022/02/12 04:40:22;;;;;;;0.00;0.00;;;;;;;;;;5050362;28;20211;-68
2022/02/12 04:42:50;;;;;;;0.07;0.07;;;;;;;;;;5054765;28;20204;-67
2022/02/12 04:45:17;;;;;;;0.23;0.23;;;;;;;;;;5049630;28;20200;-69
2022/02/12 04:47:45;;;;;;;0.00;0.00;;;;;;;;;;5048172;28;20660;-70
2022/02/12 04:50:12;;;;;;;0.00;0.00;;;;;;;;;;5048442;28;20543;-67
2022/02/12 04:52:40;;;;;;;0.00;0.00;;;;;;;;;;5045089;28;20230;-68
2022/02/12 04:55:09;;;;;;;0.00;0.00;;;;;;;;;;5047745;28;20566;-69
2022/02/12 04:57:38;;;;;;;0.20;0.20;;;;;;;;;;5046700;28;20214;-68
2022/02/12 05:00:06;;;;;;;0.33;0.33;;;;;;;;;;5046384;28;20200;-68
2022/02/12 05:02:33;;;;;;;0.10;0.10;;;;;;;;;;5049830;28;20203;-69
2022/02/12 05:05:01;;;;;;;0.00;0.00;;;;;;;;;;5045798;28;20242;-69
2022/02/12 05:07:28;;;;;;;0.20;0.20;;;;;;;;;;5046256;28;20571;-67
2022/02/12 05:09:55;;;;;;;0.07;0.07;;;;;;;;;;5048184;28;20196;-68
2022/02/12 05:12:23;;;;;;;0.00;0.00;;;;;;;;;;5050522;28;20231;-67
2022/02/12 05:14:52;;;;;;;0.20;0.20;;;;;;;;;;5049727;28;20196;-68
2022/02/12 05:17:19;;;;;;;0.00;0.00;;;;;;;;;;5045404;28;20209;-69
2022/02/12 05:19:47;;;;;;;0.17;0.17;;;;;;;;;;5048339;28;20190;-67
2022/02/12 05:22:14;;;;;;;0.00;0.00;;;;;;;;;;5051235;28;20199;-68
2022/02/12 05:24:42;;;;;;;0.00;0.00;;;;;;;;;;5048284;28;20675;-68
2022/02/12 05:27:10;;;;;;;0.00;0.00;;;;;;;;;;5050210;28;20203;-69
2022/02/12 05:29:38;;;;;;;0.00;0.00;;;;;;;;;;5051467;28;20199;-68
2022/02/12 05:32:07;;;;;;;0.87;0.70;;;;;;;;;;5049551;28;20619;-69
2022/02/12 05:34:34;;;;;;;0.00;0.00;;;;;;;;;;5056276;28;20205;-68
2022/02/12 05:37:02;;;;;;;0.00;0.00;;;;;;;;;;5050903;28;20199;-67
2022/02/12 05:39:29;;;;;;;0.00;0.00;;;;;;;;;;5051929;28;20587;-68
2022/02/12 05:41:57;;;;;;;0.00;0.00;;;;;;;;;;5049505;28;20649;-69
2022/02/12 05:44:24;;;;;;;0.10;0.10;;;;;;;;;;5055761;28;20211;-70
2022/02/12 05:46:51;;;;;;;0.20;0.20;;;;;;;;;;5051749;28;20203;-68
2022/02/12 05:49:20;;;;;;;0.30;0.30;;;;;;;;;;5051607;28;20668;-67
2022/02/12 05:51:47;;;;;;;0.00;0.00;;;;;;;;;;5052446;28;20712;-67
2022/02/12 05:54:15;;;;;;;0.63;0.63;;;;;;;;;;5050964;28;20215;-68
2022/02/12 05:56:42;;;;;;;0.37;0.37;;;;;;;;;;5055076;28;20199;-69
2022/02/12 05:59:12;;;;;;;0.00;0.00;;;;;;;;;;5049683;28;20204;-68
2022/02/12 06:01:39;;;;;;;0.00;0.00;;;;;;;;;;5054167;28;20286;-69
2022/02/12 06:04:07;;;;;;;0.00;0.00;;;;;;;;;;5048355;28;20218;-68
2022/02/12 06:06:36;;;;;;;0.00;0.00;;;;;;;;;;5049251;28;20227;-70
2022/02/12 06:09:03;;;;;;;0.00;0.00;;;;;;;;;;5051584;28;20204;-68
2022/02/12 06:11:30;;;;;;;0.13;0.13;;;;;;;;;;5048411;28;20715;-67
2022/02/12 06:13:58;;;;;;;1.00;0.83;;;;;;;;;;5053257;28;20206;-68
2022/02/12 06:16:25;;;;;;;0.37;0.37;;;;;;;;;;5049765;28;20664;-68
2022/02/12 06:18:53;;;;;;;0.00;0.00;;;;;;;;;;5050493;28;20631;-67
2022/02/12 06:21:20;;;;;;;0.00;0.00;;;;;;;;;;5051827;28;20200;-67
2022/02/12 06:23:49;;;;;;;0.00;0.00;;;;;;;;;;5051339;28;20202;-68
2022/02/12 06:26:16;;;;;;;0.73;0.73;;;;;;;;;;5050027;28;20211;-68
2022/02/12 06:28:44;;;;;;;0.20;0.20;;;;;;;;;;5049145;28;20290;-68
2022/02/12 06:31:12;;;;;;;0.00;0.00;;;;;;;;;;5052401;28;20208;-69
2022/02/12 06:33:39;;;;;;;1.43;1.33;;;;;;;;;;5047012;28;20210;-68
2022/02/12 06:36:07;;;;;;;0.30;0.30;;;;;;;;;;5052773;28;20204;-68
2022/02/12 06:38:34;;;;;;;0.33;0.27;;;;;;;;;;5048207;28;20555;-68
2022/02/12 06:41:03;;;;;;;0.00;0.00;;;;;;;;;;5048998;28;20208;-68
2022/02/12 06:43:30;;;;;;;1.90;1.57;;;;;;;;;;5048762;28;20207;-69
2022/02/12 06:45:58;;;;;;;0.00;0.00;;;;;;;;;;5046399;28;20214;-68
2022/02/12 06:48:25;;;;;;;0.50;0.50;;;;;;;;;;5049700;28;20203;-67
2022/02/12 06:50:55;;;;;;;1.13;1.03;;;;;;;;;;5053500;28;20210;-68
2022/02/12 06:53:23;;;;;;;0.73;0.73;;;;;;;;;;5049308;28;20234;-68
2022/02/12 06:55:51;;;;;;;0.00;0.00;;;;;;;;;;5053612;28;20204;-67
2022/02/12 06:58:19;;;;;;;0.00;0.00;;;;;;;;;;5049173;28;20248;-67
2022/02/12 07:00:47;;;;;;;0.00;0.00;;;;;;;;;;5048975;28;20196;-67
2022/02/12 07:03:14;;;;;;;0.00;0.00;;;;;;;;;;5050493;28;20192;-67
2022/02/12 07:05:41;;;;;;;0.03;0.03;;;;;;;;;;5053842;28;20231;-68
2022/02/12 07:08:09;;;;;;;0.53;0.53;;;;;;;;;;5052272;28;21958;-70
2022/02/12 07:10:36;;;;;;;0.33;0.33;;;;;;;;;;5048423;28;20199;-68
2022/02/12 07:13:03;;;;;;;0.00;0.00;;;;;;;;;;5050834;28;20223;-69
2022/02/12 07:15:32;;;;;;;0.17;0.10;;;;;;;;;;5050213;28;20211;-68
2022/02/12 07:18:00;;;;;;;0.10;0.10;;;;;;;;;;5051897;28;20978;-67
2022/02/12 07:20:27;;;;;;;0.10;0.10;;;;;;;;;;5053062;28;20187;-68
2022/02/12 07:22:55;;;;;;;0.00;0.00;;;;;;;;;;5053876;28;20264;-69
2022/02/12 07:25:22;;;;;;;0.10;0.10;;;;;;;;;;5051529;28;20195;-68
2022/02/12 07:27:49;;;;;;;0.00;0.00;;;;;;;;;;5047505;28;20607;-68
2022/02/12 07:30:17;;;;;;;0.00;0.00;;;;;;;;;;5053712;28;20203;-67
2022/02/12 07:32:46;;;;;;;0.00;0.00;;;;;;;;;;5047210;28;20219;-68
2022/02/12 07:35:14;;;;;;;0.20;0.20;;;;;;;;;;5049310;28;20229;-67
2022/02/12 07:37:42;;;;;;;0.30;0.30;;;;;;;;;;5051659;28;20199;-67
2022/02/12 07:40:10;;;;;;;0.00;0.00;;;;;;;;;;5048118;28;20209;-70
2022/02/12 07:42:38;;;;;;;0.03;0.03;;;;;;;;;;5052478;28;20203;-68
2022/02/12 07:45:06;;;;;;;0.20;0.20;;;;;;;;;;5045209;28;20230;-68
2022/02/12 07:47:33;;;;;;;2.23;1.03;;;;;;;;;;5051973;28;20207;-67
2022/02/12 07:50:03;;;;;;;3.80;1.80;;;;;;;;;;5046452;28;20195;-69
2022/02/12 07:52:30;;;;;;;2.30;1.17;;;;;;;;;;5046582;28;20223;-68
2022/02/12 07:54:58;;;;;;;0.10;0.10;;;;;;;;;;5048671;28;21793;-68
2022/02/12 07:57:25;;;;;;;0.00;0.00;;;;;;;;;;5047409;28;20191;-70
2022/02/12 07:59:53;;;;;;;0.00;0.00;;;;;;;;;;5053043;28;20203;-69
2022/02/12 08:02:20;;;;;;;0.30;0.30;;;;;;;;;;5055962;28;20297;-69
2022/02/12 08:04:48;;;;;;;3.90;3.50;;;;;;;;;;5051419;28;20230;-71
2022/02/12 08:07:29;;;;;;;1.23;0.97;;;;;;;;;;5052220;28;20187;-69
2022/02/12 08:09:56;;;;;;;0.83;0.67;;;;;;;;;;5054829;28;20202;-67
2022/02/12 08:12:23;;;;;;;1.37;1.10;;;;;;;;;;5054638;28;20219;-69
2022/02/12 08:14:51;;;;;;;0.30;0.30;;;;;;;;;;5057881;28;20710;-68
2022/02/12 08:17:18;;;;;;;1.00;1.00;;;;;;;;;;5060612;28;20661;-68
2022/02/12 08:19:46;;;;;;;0.73;0.47;;;;;;;;;;5050866;28;20636;-68
2022/02/12 08:22:14;;;;;;;0.13;0.13;;;;;;;;;;5052693;28;20199;-67
2022/02/12 08:24:43;;;;;;;0.17;0.17;;;;;;;;;;5050709;28;20210;-68
2022/02/12 08:27:11;;;;;;;0.00;0.00;;;;;;;;;;5055245;28;20197;-69
2022/02/12 08:29:39;;;;;;;1.80;1.10;;;;;;;;;;5051644;28;20248;-68
2022/02/12 08:32:07;;;;;;;1.57;1.47;;;;;;;;;;5056971;28;20227;-68
2022/02/12 08:34:35;;;;;;;1.13;0.73;;;;;;;;;;5051050;28;20207;-67
2022/02/12 08:37:02;;;;;;;1.13;1.00;;;;;;;;;;5049035;28;20248;-67
2022/02/12 08:39:30;;;;;;;0.40;0.40;;;;;;;;;;5050689;28;20542;-66
2022/02/12 08:41:59;;;;;;;2.67;1.17;;;;;;;;;;5052129;28;20200;-67
2022/02/12 08:44:26;;;;;;;0.63;0.63;;;;;;;;;;5049294;28;20203;-67
2022/02/12 08:46:54;;;;;;;2.23;1.60;;;;;;;;;;5049275;28;20191;-69
2022/02/12 08:49:21;;;;;;;2.00;0.87;;;;;;;;;;5049990;28;20199;-66
2022/02/12 08:51:48;;;;;;;1.33;1.10;;;;;;;;;;5048566;28;20195;-66
2022/02/12 08:54:16;;;;;;;1.27;0.33;;;;;;;;;;5048415;28;20240;-67
2022/02/12 08:56:44;;;;;;;4.90;4.50;;;;;;;;;;5048500;28;20457;-67
2022/02/12 08:59:13;;;;;;;0.27;0.27;;;;;;;;;;5048087;28;20214;-67
2022/02/12 09:01:41;;;;;;;0.60;0.43;;;;;;;;;;5051713;28;20210;-67
2022/02/12 09:04:09;;;;;;;4.13;1.60;;;;;;;;;;5049121;28;20520;-68
2022/02/12 09:06:37;;;;;;;0.60;0.50;;;;;;;;;;5049873;28;20226;-69
2022/02/12 09:09:08;;;;;;;1.63;1.53;;;;;;;;;;5054704;28;20192;-66
2022/02/12 09:11:36;;;;;;;1.70;1.60;;;;;;;;;;5049101;28;20198;-66
2022/02/12 09:14:04;;;;;;;2.50;2.00;;;;;;;;;;5049526;28;20599;-67
2022/02/12 09:16:32;;;;;;;2.33;2.10;;;;;;;;;;5051152;28;20211;-66
2022/02/12 09:19:00;;;;;;;1.17;1.07;;;;;;;;;;5053599;28;20203;-70
2022/02/12 09:24:09;;;;;;;0.50;0.50;;;;;;;;;;5050334;28;20207;-67
2022/02/12 09:26:38;;;;;;;0.70;0.57;;;;;;;;;;5051657;28;20241;-67
2022/02/12 09:29:07;;;;;;;2.40;1.83;;;;;;;;;;5051310;28;20187;-67
2022/02/12 09:31:36;;;;;;;3.83;2.67;;;;;;;;;;5048837;28;20322;-67
2022/02/12 09:34:03;;;;;;;0.77;0.77;;;;;;;;;;5050135;28;20219;-67
2022/02/12 09:36:31;;;;;;;0.83;0.57;;;;;;;;;;5050790;28;20660;-67
2022/02/12 09:38:58;;;;;;;0.20;0.20;;;;;;;;;;5050356;28;20223;-67
2022/02/12 09:41:27;;;;;;;0.67;0.67;;;;;;;;;;5052070;28;20202;-67
2022/02/12 09:43:55;;;;;;;0.10;0.10;;;;;;;;;;5051993;28;20219;-69
2022/02/12 09:46:31;;;;;;;2.73;1.37;;;;;;;;;;5053507;28;20526;-66
2022/02/12 09:49:01;;;;;;;1.00;0.93;;;;;;;;;;5048471;28;20207;-66
2022/02/12 09:51:29;;;;;;;1.60;1.50;;;;;;;;;;5050798;28;20204;-66
2022/02/12 09:53:57;;;;;;;1.23;1.10;;;;;;;;;;5047094;28;20235;-68
2022/02/12 09:56:24;;;;;;;3.40;1.47;;;;;;;;;;5049620;28;20204;-67
2022/02/12 09:58:52;;;;;;;1.33;0.93;;;;;;;;;;5049917;28;20203;-70
2022/02/12 10:01:19;;;;;;;1.23;0.83;;;;;;;;;;5048596;28;20670;-70
2022/02/12 10:03:49;;;;;;;3.53;1.07;;;;;;;;;;5049265;28;20195;-67
2022/02/12 10:06:38;;;;;;;0.80;0.80;;;;;;;;;;5055170;28;20267;-66
2022/02/12 10:09:06;;;;;;;1.73;0.70;;;;;;;;;;5049699;28;20223;-67
2022/02/12 10:11:40;;;;;;;2.50;1.77;;;;;;;;;;5056996;28;20204;-67
2022/02/12 10:14:11;;;;;;;2.03;1.83;;;;;;;;;;5054182;28;20254;-66
2022/02/12 10:16:55;;;;;;;2.73;2.20;;;;;;;;;;5055447;28;20204;-67
2022/02/12 10:19:33;;;;;;;4.43;0.90;;;;;;;;;;5054518;28;20196;-66
2022/02/12 10:22:09;;;;;;;0.10;0.10;;;;;;;;;;5053926;28;20199;-69
2022/02/12 10:24:51;;;;;;;0.17;0.17;;;;;;;;;;5052635;28;20192;-68
2022/02/12 10:27:19;;;;;;;0.73;0.70;;;;;;;;;;5054890;28;20211;-69
2022/02/12 10:29:47;;;;;;;0.40;0.40;;;;;;;;;;5053063;28;20195;-67
2022/02/12 10:32:16;;;;;;;5.27;2.50;;;;;;;;;;5055962;28;20723;-69
2022/02/12 10:34:44;;;;;;;0.20;0.20;;;;;;;;;;5052439;28;20667;-68
2022/02/12 10:37:14;;;;;;;0.63;0.63;;;;;;;;;;5055031;28;20194;-67
2022/02/12 10:39:55;;;;;;;2.73;1.13;;;;;;;;;;5053232;28;20855;-69
2022/02/12 10:42:23;;;;;;;2.30;0.80;;;;;;;;;;5054278;28;20273;-69
2022/02/12 10:44:51;;;;;;;0.53;0.40;;;;;;;;;;5051801;28;20196;-69
2022/02/12 10:47:18;;;;;;;1.70;1.27;;;;;;;;;;5054573;28;20230;-68
2022/02/12 10:49:47;;;;;;;0.30;0.27;;;;;;;;;;5053079;28;20213;-69
2022/02/12 10:52:16;;;;;;;0.10;0.10;;;;;;;;;;5053761;28;20207;-68
2022/02/12 10:54:44;;;;;;;10.60;3.47;;;;;;;;;;5052006;28;20227;-68
2022/02/12 10:57:12;;;;;;;2.43;1.23;;;;;;;;;;5053592;28;20195;-69
2022/02/12 10:59:42;;;;;;;0.37;0.37;;;;;;;;;;5052167;28;20199;-68
2022/02/12 11:02:11;;;;;;;0.00;0.00;;;;;;;;;;5056036;28;21910;-68
2022/02/12 11:04:41;;;;;;;1.40;0.93;;;;;;;;;;5053344;28;20227;-67
2022/02/12 11:07:09;;;;;;;1.50;0.47;;;;;;;;;;5050920;28;20206;-68
2022/02/12 11:09:38;;;;;;;0.63;0.57;;;;;;;;;;5051894;28;20194;-67
2022/02/12 11:12:06;;;;;;;0.37;0.33;;;;;;;;;;5049007;28;20191;-68
2022/02/12 11:14:36;;;;;;;2.93;1.37;;;;;;;;;;5054258;28;20222;-67
2022/02/12 11:17:05;;;;;;;1.73;0.20;;;;;;;;;;5055041;28;20242;-68
2022/02/12 11:19:33;;;;;;;0.50;0.50;;;;;;;;;;5050181;28;20195;-69
2022/02/12 11:22:01;;;;;;;0.20;0.20;;;;;;;;;;5050757;28;20290;-69
2022/02/12 11:24:46;;;;;;;1.00;0.60;;;;;;;;;;5056139;28;20695;-70
2022/02/12 11:27:19;;;;;;;0.97;0.50;;;;;;;;;;5051175;28;20277;-68
2022/02/12 11:29:46;;;;;;;2.43;1.20;;;;;;;;;;5049214;28;20563;-69
2022/02/12 11:32:15;;;;;;;0.20;0.20;;;;;;;;;;5052404;28;20206;-68
2022/02/12 11:34:43;;;;;;;1.33;0.67;;;;;;;;;;5050267;28;20223;-68
2022/02/12 11:37:14;;;;;;;0.70;0.70;;;;;;;;;;5052172;28;20543;-68
2022/02/12 11:39:41;;;;;;;0.30;0.20;;;;;;;;;;5047895;28;20282;-68
2022/02/12 11:42:13;;;;;;;2.97;1.87;;;;;;;;;;5043207;28;20526;-69
2022/02/12 11:44:43;;;;;;;0.43;0.20;;;;;;;;;;5040293;28;20228;-70
2022/02/12 11:47:10;;;;;;;1.33;0.97;;;;;;;;;;5039781;28;20349;-68
2022/02/12 11:49:38;;;;;;;1.50;1.40;;;;;;;;;;5042886;28;20655;-71
2022/02/12 11:52:09;;;;;;;0.73;0.73;;;;;;;;;;5042101;28;20233;-68
2022/02/12 11:54:56;;;;;;;2.50;1.53;;;;;;;;;;5038337;28;20729;-71
2022/02/12 11:57:38;;;;;;;0.97;0.97;;;;;;;;;;5048182;28;20199;-71
2022/02/12 12:00:24;;;;;;;6.80;1.37;;;;;;;;;;5050741;28;20302;-68
2022/02/12 12:02:53;;;;;;;5.50;0.60;;;;;;;;;;5050663;28;20598;-70
2022/02/12 12:05:22;;;;;;;0.30;0.30;;;;;;;;;;5053397;28;20222;-69
2022/02/12 12:08:11;;;;;;;4.20;1.40;;;;;;;;;;5056564;28;20196;-72
2022/02/12 12:10:40;;;;;;;3.87;1.17;;;;;;;;;;5055161;28;20199;-68
2022/02/12 12:13:26;;;;;;;0.90;0.90;;;;;;;;;;5054316;28;20631;-68
2022/02/12 12:15:57;;;;;;;0.40;0.40;;;;;;;;;;5049067;28;20662;-70
2022/02/12 12:18:27;;;;;;;1.00;0.83;;;;;;;;;;5051168;28;20202;-68
2022/02/12 12:20:55;;;;;;;0.37;0.10;;;;;;;;;;5042193;28;20230;-69
2022/02/12 12:23:23;;;;;;;0.27;0.27;;;;;;;;;;5038448;28;20206;-70
2022/02/12 12:25:54;;;;;;;1.03;1.03;;;;;;;;;;5046054;28;20227;-69
2022/02/12 12:28:25;;;;;;;0.53;0.53;;;;;;;;;;5049825;28;20202;-68
2022/02/12 12:30:52;;;;;;;0.43;0.43;;;;;;;;;;5048555;28;20203;-68
2022/02/12 12:33:19;;;;;;;1.33;1.00;;;;;;;;;;5049797;28;20220;-69
2022/02/12 12:35:52;;;;;;;2.73;1.13;;;;;;;;;;5053164;28;20214;-68
2022/02/12 12:38:20;;;;;;;2.30;0.90;;;;;;;;;;5050873;28;20207;-68
2022/02/12 12:40:48;;;;;;;2.20;1.53;;;;;;;;;;5053925;28;20206;-68
2022/02/12 12:43:17;;;;;;;1.60;0.70;;;;;;;;;;5050787;28;20214;-70
2022/02/12 12:45:45;;;;;;;0.60;0.50;;;;;;;;;;5052052;28;20572;-68
2022/02/12 12:48:13;;;;;;;1.40;0.83;;;;;;;;;;5049760;28;20199;-68
2022/02/12 12:50:41;;;;;;;2.77;1.50;;;;;;;;;;5048567;28;20199;-68
2022/02/12 12:53:11;;;;;;;2.10;1.70;;;;;;;;;;5049534;28;20206;-69
2022/02/12 12:55:39;;;;;;;0.97;0.80;;;;;;;;;;5057666;28;20209;-68
2022/02/12 12:58:13;;;;;;;1.43;0.80;;;;;;;;;;5055345;28;20191;-70
2022/02/12 13:00:41;;;;;;;1.07;0.30;;;;;;;;;;5052873;28;20195;-69
2022/02/12 13:03:08;;;;;;;2.03;1.40;;;;;;;;;;5048973;28;20200;-69
2022/02/12 13:05:36;;;;;;;5.57;1.90;;;;;;;;;;5052908;28;20289;-67
2022/02/12 13:08:05;;;;;;;2.40;0.93;;;;;;;;;;5053795;28;21923;-66
2022/02/12 13:10:34;;;;;;;1.37;1.23;;;;;;;;;;5053890;28;20196;-70
2022/02/12 13:13:11;;;;;;;2.53;1.00;;;;;;;;;;5052102;28;20204;-71
2022/02/12 13:15:39;;;;;;;5.47;0.90;;;;;;;;;;5053880;28;20195;-68
2022/02/12 13:18:07;;;;;;;1.43;1.07;;;;;;;;;;5048016;28;20191;-68
2022/02/12 13:20:36;;;;;;;3.27;1.90;;;;;;;;;;5052256;28;20227;-68
2022/02/12 13:23:05;;;;;;;1.27;1.10;;;;;;;;;;5049239;28;20199;-69
2022/02/12 13:25:38;;;;;;;1.70;1.17;;;;;;;;;;5050559;28;20675;-68
2022/02/12 13:28:07;;;;;;;1.63;1.53;;;;;;;;;;5052977;28;20205;-68
2022/02/12 13:30:35;;;;;;;2.33;0.60;;;;;;;;;;5047366;28;20206;-69
2022/02/12 13:33:03;;;;;;;2.27;1.00;;;;;;;;;;5052156;28;20186;-70
2022/02/12 13:35:34;;;;;;;1.77;0.80;;;;;;;;;;5052519;28;20227;-68
2022/02/12 13:38:02;;;;;;;1.30;0.47;;;;;;;;;;5050833;28;20200;-69
2022/02/12 13:40:33;;;;;;;4.80;1.20;;;;;;;;;;5052136;28;20198;-68
2022/02/12 13:43:03;;;;;;;2.50;1.37;;;;;;;;;;5052046;28;20199;-68
2022/02/12 13:45:32;;;;;;;1.30;1.20;;;;;;;;;;5052031;28;20596;-67
2022/02/12 13:48:00;;;;;;;0.67;0.43;;;;;;;;;;5056917;28;20196;-69
2022/02/12 13:50:28;;;;;;;1.50;0.70;;;;;;;;;;5055127;28;20290;-68
2022/02/12 13:52:57;;;;;;;0.57;0.43;;;;;;;;;;5055104;28;20191;-68
2022/02/12 13:55:24;;;;;;;0.43;0.43;;;;;;;;;;5054566;28;20696;-68
2022/02/12 13:57:52;;;;;;;1.33;1.23;;;;;;;;;;5052016;28;20218;-68
2022/02/12 14:00:22;;;;;;;0.90;0.90;;;;;;;;;;5054891;28;20210;-68
2022/02/12 14:02:53;;;;;;;0.83;0.80;;;;;;;;;;5053360;28;20213;-70
2022/02/12 14:05:21;;;;;;;3.50;2.07;;;;;;;;;;5056534;28;20239;-68
2022/02/12 14:07:49;;;;;;;1.47;0.77;;;;;;;;;;5054913;28;20204;-68
2022/02/12 14:10:16;;;;;;;1.10;0.73;;;;;;;;;;5053940;28;20668;-68
2022/02/12 14:12:43;;;;;;;0.63;0.50;;;;;;;;;;5055390;28;20195;-68
2022/02/12 14:15:11;;;;;;;1.20;0.77;;;;;;;;;;5054880;28;21386;-68
2022/02/12 14:17:40;;;;;;;1.60;1.50;;;;;;;;;;5053006;28;20202;-69
2022/02/12 14:20:09;;;;;;;3.37;2.07;;;;;;;;;;5049685;28;20229;-67
2022/02/12 14:22:36;;;;;;;5.80;1.23;;;;;;;;;;5050713;28;20246;-69
2022/02/12 14:25:04;;;;;;;0.63;0.63;;;;;;;;;;5052570;28;20587;-68
2022/02/12 14:27:31;;;;;;;4.03;1.73;;;;;;;;;;5056350;28;20227;-67
2022/02/12 14:29:59;;;;;;;1.80;1.40;;;;;;;;;;5055601;28;20205;-67
2022/02/12 14:32:26;;;;;;;12.20;2.67;;;;;;;;;;5055352;28;20246;-68
2022/02/12 14:34:55;;;;;;;0.30;0.20;;;;;;;;;;5055176;28;20234;-68
2022/02/12 14:37:22;;;;;;;5.83;1.03;;;;;;;;;;5054816;28;20389;-67
2022/02/12 14:39:50;;;;;;;0.97;0.97;;;;;;;;;;5054301;28;20206;-69
2022/02/12 14:42:17;;;;;;;0.37;0.30;;;;;;;;;;5052570;28;20195;-68
2022/02/12 14:44:44;;;;;;;0.43;0.43;;;;;;;;;;5055542;28;20202;-69
2022/02/12 14:47:12;;;;;;;2.10;1.23;;;;;;;;;;5052675;28;20202;-67
2022/02/12 14:49:39;;;;;;;0.30;0.30;;;;;;;;;;5052791;28;20213;-69
2022/02/12 14:52:11;;;;;;;1.27;1.20;;;;;;;;;;5053113;28;20295;-69
2022/02/12 14:54:38;;;;;;;0.40;0.40;;;;;;;;;;5052819;28;20230;-68
2022/02/12 14:57:06;;;;;;;0.23;0.23;;;;;;;;;;5052279;28;20207;-68
2022/02/12 14:59:33;;;;;;;2.70;0.67;;;;;;;;;;5051371;28;20595;-68